sensor_id;sensor_type;location;lat;lon;timestamp;pressure;altitude;pressure_sealevel;temperature;humidity
52249;BME280;38541;48.130;8.378;2023-02-19T00:01:20;93324.41;;;7.66;73.38
52249;BME280;38541;48.130;8.378;2023-02-19T00:03:55;93321.78;;;7.66;73.51
52249;BME280;38541;48.130;8.378;2023-02-19T00:06:23;93321.69;;;7.61;73.58
52249;BME280;38541;48.130;8.378;2023-02-19T00:08:50;93318.06;;;7.62;73.33
52249;BME280;38541;48.130;8.378;2023-02-19T00:11:22;93319.31;;;7.60;72.57
52249;BME280;38541;48.130;8.378;2023-02-19T00:13:51;93313.84;;;7.61;72.46
52249;BME280;38541;48.130;8.378;2023-02-19T00:16:29;93308.63;;;7.61;71.96
52249;BME280;38541;48.130;8.378;2023-02-19T00:18:57;93323.28;;;7.62;72.42
52249;BME280;38541;48.130;8.378;2023-02-19T00:21:24;93300.44;;;7.57;72.41
52249;BME280;38541;48.130;8.378;2023-02-19T00:23:53;93302.25;;;7.57;72.21
52249;BME280;38541;48.130;8.378;2023-02-19T00:26:20;93306.47;;;7.58;71.79
52249;BME280;38541;48.130;8.378;2023-02-19T00:28:48;93310.56;;;7.54;71.79
52249;BME280;38541;48.130;8.378;2023-02-19T00:31:18;93303.38;;;7.61;71.58
52249;BME280;38541;48.130;8.378;2023-02-19T00:33:46;93293.75;;;7.62;71.59
52249;BME280;38541;48.130;8.378;2023-02-19T00:36:13;93295.53;;;7.61;71.20
52249;BME280;38541;48.130;8.378;2023-02-19T00:38:41;93304.75;;;7.64;70.75
52249;BME280;38541;48.130;8.378;2023-02-19T00:41:08;93299.53;;;7.64;70.71
52249;BME280;38541;48.130;8.378;2023-02-19T00:43:46;93306.00;;;7.61;71.09
52249;BME280;38541;48.130;8.378;2023-02-19T00:46:15;93304.75;;;7.64;70.57
52249;BME280;38541;48.130;8.378;2023-02-19T00:48:41;93305.66;;;7.57;70.71
52249;BME280;38541;48.130;8.378;2023-02-19T00:51:08;93316.25;;;7.51;70.68
52249;BME280;38541;48.130;8.378;2023-02-19T00:53:35;93314.78;;;7.55;70.73
52249;BME280;38541;48.130;8.378;2023-02-19T00:56:02;93315.56;;;7.55;70.73
52249;BME280;38541;48.130;8.378;2023-02-19T00:58:28;93310.56;;;7.54;70.64
52249;BME280;38541;48.130;8.378;2023-02-19T01:00:55;93314.22;;;7.53;70.60
52249;BME280;38541;48.130;8.378;2023-02-19T01:03:22;93307.38;;;7.52;70.39
52249;BME280;38541;48.130;8.378;2023-02-19T01:05:50;93311.69;;;7.58;70.55
52249;BME280;38541;48.130;8.378;2023-02-19T01:08:17;93313.28;;;7.59;70.19
52249;BME280;38541;48.130;8.378;2023-02-19T01:10:45;93300.78;;;7.61;70.53
52249;BME280;38541;48.130;8.378;2023-02-19T01:13:11;93294.75;;;7.61;70.15
52249;BME280;38541;48.130;8.378;2023-02-19T01:15:38;93296.66;;;7.65;69.96
52249;BME280;38541;48.130;8.378;2023-02-19T01:18:04;93273.38;;;7.64;70.13
52249;BME280;38541;48.130;8.378;2023-02-19T01:20:31;93269.31;;;7.56;70.05
52249;BME280;38541;48.130;8.378;2023-02-19T01:22:57;93271.09;;;7.55;70.36
52249;BME280;38541;48.130;8.378;2023-02-19T01:25:24;93284.19;;;7.55;69.97
52249;BME280;38541;48.130;8.378;2023-02-19T01:27:50;93288.16;;;7.58;70.48
52249;BME280;38541;48.130;8.378;2023-02-19T01:30:17;93288.16;;;7.58;70.01
52249;BME280;38541;48.130;8.378;2023-02-19T01:32:43;93298.75;;;7.51;70.42
52249;BME280;38541;48.130;8.378;2023-02-19T01:35:10;93278.38;;;7.53;70.48
52249;BME280;38541;48.130;8.378;2023-02-19T01:37:36;93297.16;;;7.50;70.50
52249;BME280;38541;48.130;8.378;2023-02-19T01:40:03;93263.97;;;7.51;70.43
52249;BME280;38541;48.130;8.378;2023-02-19T01:42:29;93254.63;;;7.55;70.01
52249;BME280;38541;48.130;8.378;2023-02-19T01:45:21;93247.00;;;7.53;70.30
52249;BME280;38541;48.130;8.378;2023-02-19T01:47:59;93252.69;;;7.50;70.56
52249;BME280;38541;48.130;8.378;2023-02-19T01:50:29;93252.34;;;7.47;70.72
52249;BME280;38541;48.130;8.378;2023-02-19T01:52:58;93264.88;;;7.45;70.70
52249;BME280;38541;48.130;8.378;2023-02-19T01:55:30;93266.25;;;7.47;70.44
52249;BME280;38541;48.130;8.378;2023-02-19T01:57:59;93270.53;;;7.53;70.46
52249;BME280;38541;48.130;8.378;2023-02-19T02:00:25;93292.94;;;7.49;70.33
52249;BME280;38541;48.130;8.378;2023-02-19T02:02:53;93268.50;;;7.43;70.98
52249;BME280;38541;48.130;8.378;2023-02-19T02:05:55;93279.66;;;7.51;70.67
52249;BME280;38541;48.130;8.378;2023-02-19T02:08:25;93283.72;;;7.47;70.43
52249;BME280;38541;48.130;8.378;2023-02-19T02:11:10;93272.50;;;7.46;70.63
52249;BME280;38541;48.130;8.378;2023-02-19T02:13:39;93278.50;;;7.47;70.28
52249;BME280;38541;48.130;8.378;2023-02-19T02:18:53;93274.53;;;7.44;70.24
52249;BME280;38541;48.130;8.378;2023-02-19T02:27:36;93245.97;;;7.66;69.62
52249;BME280;38541;48.130;8.378;2023-02-19T02:30:15;93255.88;;;7.52;69.96
52249;BME280;38541;48.130;8.378;2023-02-19T02:35:29;93241.47;;;7.38;71.16
52249;BME280;38541;48.130;8.378;2023-02-19T02:38:01;93257.13;;;7.38;71.88
52249;BME280;38541;48.130;8.378;2023-02-19T02:40:30;93256.81;;;7.34;72.04
52249;BME280;38541;48.130;8.378;2023-02-19T02:42:59;93252.38;;;7.23;73.18
52249;BME280;38541;48.130;8.378;2023-02-19T02:45:31;93262.72;;;7.18;73.88
52249;BME280;38541;48.130;8.378;2023-02-19T02:48:18;93263.41;;;7.25;74.03
52249;BME280;38541;48.130;8.378;2023-02-19T02:50:53;93260.59;;;7.14;73.58
52249;BME280;38541;48.130;8.378;2023-02-19T02:53:31;93269.34;;;7.20;73.85
52249;BME280;38541;48.130;8.378;2023-02-19T02:56:19;93269.44;;;7.13;73.97
52249;BME280;38541;48.130;8.378;2023-02-19T02:58:48;93262.38;;;7.02;74.69
52249;BME280;38541;48.130;8.378;2023-02-19T03:01:21;93274.78;;;6.95;75.28
52249;BME280;38541;48.130;8.378;2023-02-19T03:04:20;93272.81;;;6.78;76.60
52249;BME280;38541;48.130;8.378;2023-02-19T03:06:49;93253.25;;;6.69;77.61
52249;BME280;38541;48.130;8.378;2023-02-19T03:09:22;93235.78;;;6.69;78.37
52249;BME280;38541;48.130;8.378;2023-02-19T03:11:59;93218.84;;;6.60;78.82
52249;BME280;38541;48.130;8.378;2023-02-19T03:14:49;93228.16;;;6.56;79.30
52249;BME280;38541;48.130;8.378;2023-02-19T03:17:41;93199.09;;;6.52;79.54
52249;BME280;38541;48.130;8.378;2023-02-19T03:20:29;93188.53;;;6.47;79.40
52249;BME280;38541;48.130;8.378;2023-02-19T03:22:59;93170.50;;;6.46;79.48
52249;BME280;38541;48.130;8.378;2023-02-19T03:25:30;93165.84;;;6.36;79.16
52249;BME280;38541;48.130;8.378;2023-02-19T03:28:27;93166.72;;;6.41;78.54
52249;BME280;38541;48.130;8.378;2023-02-19T03:31:18;93171.06;;;6.36;79.24
52249;BME280;38541;48.130;8.378;2023-02-19T03:33:50;93186.13;;;6.34;78.75
52249;BME280;38541;48.130;8.378;2023-02-19T03:36:17;93195.22;;;6.31;79.12
52249;BME280;38541;48.130;8.378;2023-02-19T03:38:57;93190.09;;;6.24;79.05
52249;BME280;38541;48.130;8.378;2023-02-19T03:44:32;93175.66;;;6.22;79.60
52249;BME280;38541;48.130;8.378;2023-02-19T03:49:55;93187.47;;;6.24;79.49
52249;BME280;38541;48.130;8.378;2023-02-19T03:52:52;93168.31;;;6.31;79.47
52249;BME280;38541;48.130;8.378;2023-02-19T03:58:08;93204.72;;;6.25;79.77
52249;BME280;38541;48.130;8.378;2023-02-19T04:01:14;93180.66;;;6.23;80.05
52249;BME280;38541;48.130;8.378;2023-02-19T04:06:25;93192.72;;;6.36;79.69
52249;BME280;38541;48.130;8.378;2023-02-19T04:08:55;93202.38;;;6.36;79.49
52249;BME280;38541;48.130;8.378;2023-02-19T04:11:24;93205.84;;;6.30;80.01
52249;BME280;38541;48.130;8.378;2023-02-19T04:14:16;93214.03;;;6.33;80.00
52249;BME280;38541;48.130;8.378;2023-02-19T04:16:47;93209.03;;;6.32;79.94
52249;BME280;38541;48.130;8.378;2023-02-19T04:19:18;93209.84;;;6.32;80.16
52249;BME280;38541;48.130;8.378;2023-02-19T04:21:46;93218.69;;;6.31;79.99
52249;BME280;38541;48.130;8.378;2023-02-19T04:24:18;93188.72;;;6.34;79.97
52249;BME280;38541;48.130;8.378;2023-02-19T04:26:47;93199.16;;;6.34;79.83
52249;BME280;38541;48.130;8.378;2023-02-19T04:29:14;93193.03;;;6.16;80.92
52249;BME280;38541;48.130;8.378;2023-02-19T04:31:40;93187.38;;;6.19;80.44
52249;BME280;38541;48.130;8.378;2023-02-19T04:34:07;93192.34;;;6.21;80.20
52249;BME280;38541;48.130;8.378;2023-02-19T04:36:33;93174.44;;;6.24;79.94
52249;BME280;38541;48.130;8.378;2023-02-19T04:39:00;93172.72;;;6.18;79.89
52249;BME280;38541;48.130;8.378;2023-02-19T04:41:26;93180.41;;;6.13;80.15
52249;BME280;38541;48.130;8.378;2023-02-19T04:43:53;93170.88;;;6.07;79.95
52249;BME280;38541;48.130;8.378;2023-02-19T04:46:19;93176.31;;;6.05;80.30
52249;BME280;38541;48.130;8.378;2023-02-19T04:48:46;93180.28;;;6.08;80.05
52249;BME280;38541;48.130;8.378;2023-02-19T04:51:12;93174.63;;;6.11;79.75
52249;BME280;38541;48.130;8.378;2023-02-19T04:53:39;93180.28;;;6.08;80.25
52249;BME280;38541;48.130;8.378;2023-02-19T04:56:07;93181.44;;;6.12;79.87
52249;BME280;38541;48.130;8.378;2023-02-19T04:58:33;93194.63;;;6.17;79.96
52249;BME280;38541;48.130;8.378;2023-02-19T05:01:00;93194.94;;;6.21;79.90
52249;BME280;38541;48.130;8.378;2023-02-19T05:03:26;93187.03;;;6.27;79.83
52249;BME280;38541;48.130;8.378;2023-02-19T05:05:53;93199.72;;;6.24;79.60
52249;BME280;38541;48.130;8.378;2023-02-19T05:08:19;93192.47;;;6.26;79.91
52249;BME280;38541;48.130;8.378;2023-02-19T05:10:46;93194.84;;;6.27;79.93
52249;BME280;38541;48.130;8.378;2023-02-19T05:13:12;93201.09;;;6.26;79.80
52249;BME280;38541;48.130;8.378;2023-02-19T05:15:39;93197.72;;;6.26;79.77
52249;BME280;38541;48.130;8.378;2023-02-19T05:18:05;93202.56;;;6.22;79.74
52249;BME280;38541;48.130;8.378;2023-02-19T05:20:32;93205.84;;;6.30;79.84
52249;BME280;38541;48.130;8.378;2023-02-19T05:22:58;93212.38;;;6.39;79.08
52249;BME280;38541;48.130;8.378;2023-02-19T05:25:24;93212.47;;;6.32;79.18
52249;BME280;38541;48.130;8.378;2023-02-19T05:27:51;93213.81;;;6.35;79.15
52249;BME280;38541;48.130;8.378;2023-02-19T05:30:37;93221.22;;;6.38;78.66
52249;BME280;38541;48.130;8.378;2023-02-19T05:33:03;93218.50;;;6.45;78.34
52249;BME280;38541;48.130;8.378;2023-02-19T05:35:30;93223.03;;;6.49;78.02
52249;BME280;38541;48.130;8.378;2023-02-19T05:37:56;93231.44;;;6.51;77.92
52249;BME280;38541;48.130;8.378;2023-02-19T05:40:23;93230.19;;;6.54;77.81
52249;BME280;38541;48.130;8.378;2023-02-19T05:42:49;93241.53;;;6.48;78.16
52249;BME280;38541;48.130;8.378;2023-02-19T05:45:16;93248.56;;;6.47;78.25
52249;BME280;38541;48.130;8.378;2023-02-19T05:47:42;93249.94;;;6.50;78.27
52249;BME280;38541;48.130;8.378;2023-02-19T05:50:08;93250.72;;;6.50;78.01
52249;BME280;38541;48.130;8.378;2023-02-19T05:52:35;93262.09;;;6.56;78.30
52249;BME280;38541;48.130;8.378;2023-02-19T05:55:01;93253.47;;;6.55;78.13
52249;BME280;38541;48.130;8.378;2023-02-19T05:57:28;93255.63;;;6.47;78.25
52249;BME280;38541;48.130;8.378;2023-02-19T05:59:55;93260.69;;;6.41;78.61
52249;BME280;38541;48.130;8.378;2023-02-19T06:02:21;93274.53;;;6.42;78.83
52249;BME280;38541;48.130;8.378;2023-02-19T06:04:48;93283.47;;;6.34;79.17
52249;BME280;38541;48.130;8.378;2023-02-19T06:07:14;93271.22;;;6.35;79.17
52249;BME280;38541;48.130;8.378;2023-02-19T06:09:41;93284.78;;;6.25;80.12
52249;BME280;38541;48.130;8.378;2023-02-19T06:12:07;93274.88;;;6.15;80.78
52249;BME280;38541;48.130;8.378;2023-02-19T06:14:33;93288.69;;;6.04;81.33
52249;BME280;38541;48.130;8.378;2023-02-19T06:17:00;93274.19;;;6.08;81.52
52249;BME280;38541;48.130;8.378;2023-02-19T06:19:26;93287.69;;;6.05;81.70
52249;BME280;38541;48.130;8.378;2023-02-19T06:21:53;93297.94;;;5.99;81.77
52249;BME280;38541;48.130;8.378;2023-02-19T06:24:19;93292.16;;;5.97;81.92
52249;BME280;38541;48.130;8.378;2023-02-19T06:26:45;93316.81;;;6.02;81.89
52249;BME280;38541;48.130;8.378;2023-02-19T06:29:12;93316.38;;;6.05;81.67
52249;BME280;38541;48.130;8.378;2023-02-19T06:31:38;93323.66;;;5.96;82.07
52249;BME280;38541;48.130;8.378;2023-02-19T06:34:05;93320.03;;;5.97;82.18
52249;BME280;38541;48.130;8.378;2023-02-19T06:36:32;93324.03;;;5.99;81.95
52249;BME280;38541;48.130;8.378;2023-02-19T06:38:59;93331.84;;;5.99;82.17
52249;BME280;38541;48.130;8.378;2023-02-19T06:41:25;93341.72;;;5.97;82.40
52249;BME280;38541;48.130;8.378;2023-02-19T06:43:52;93346.84;;;6.04;82.74
52249;BME280;38541;48.130;8.378;2023-02-19T06:46:19;93356.88;;;6.07;82.62
52249;BME280;38541;48.130;8.378;2023-02-19T06:48:45;93353.16;;;6.15;82.38
52249;BME280;38541;48.130;8.378;2023-02-19T06:51:16;93355.19;;;6.13;82.38
52249;BME280;38541;48.130;8.378;2023-02-19T06:53:44;93373.25;;;6.14;82.08
52249;BME280;38541;48.130;8.378;2023-02-19T06:56:27;93381.78;;;6.03;82.66
52249;BME280;38541;48.130;8.378;2023-02-19T06:58:57;93366.38;;;6.02;82.53
52249;BME280;38541;48.130;8.378;2023-02-19T07:01:26;93369.56;;;6.04;82.08
52249;BME280;38541;48.130;8.378;2023-02-19T07:03:53;93372.38;;;6.02;82.82
52249;BME280;38541;48.130;8.378;2023-02-19T07:06:23;93384.72;;;5.88;83.33
52249;BME280;38541;48.130;8.378;2023-02-19T07:08:51;93389.94;;;5.88;83.45
52249;BME280;38541;48.130;8.378;2023-02-19T07:11:18;93372.72;;;5.87;82.85
52249;BME280;38541;48.130;8.378;2023-02-19T07:13:44;93397.63;;;5.83;83.02
52249;BME280;38541;48.130;8.378;2023-02-19T07:16:11;93395.03;;;5.83;83.75
52249;BME280;38541;48.130;8.378;2023-02-19T07:18:39;93401.53;;;5.92;83.63
52249;BME280;38541;48.130;8.378;2023-02-19T07:21:10;93405.06;;;5.79;83.31
52249;BME280;38541;48.130;8.378;2023-02-19T07:23:38;93406.28;;;5.77;83.38
52249;BME280;38541;48.130;8.378;2023-02-19T07:26:12;93415.69;;;5.78;83.50
52249;BME280;38541;48.130;8.378;2023-02-19T07:28:40;93414.28;;;5.82;83.65
52249;BME280;38541;48.130;8.378;2023-02-19T07:31:07;93426.84;;;5.66;83.57
52249;BME280;38541;48.130;8.378;2023-02-19T07:33:35;93419.63;;;5.68;83.73
52249;BME280;38541;48.130;8.378;2023-02-19T07:36:01;93427.63;;;5.67;83.87
52249;BME280;38541;48.130;8.378;2023-02-19T07:38:28;93434.88;;;5.65;84.06
52249;BME280;38541;48.130;8.378;2023-02-19T07:40:57;93426.63;;;5.68;83.70
52249;BME280;38541;48.130;8.378;2023-02-19T07:43:25;93433.81;;;5.72;83.77
52249;BME280;38541;48.130;8.378;2023-02-19T07:45:51;93435.41;;;5.74;83.74
52249;BME280;38541;48.130;8.378;2023-02-19T07:48:18;93442.16;;;5.81;83.45
52249;BME280;38541;48.130;8.378;2023-02-19T07:50:56;93445.63;;;5.75;83.56
52249;BME280;38541;48.130;8.378;2023-02-19T07:53:23;93457.31;;;5.66;83.54
52249;BME280;38541;48.130;8.378;2023-02-19T07:55:50;93462.88;;;5.76;84.23
52249;BME280;38541;48.130;8.378;2023-02-19T07:58:17;93462.63;;;5.59;84.30
52249;BME280;38541;48.130;8.378;2023-02-19T08:00:44;93469.34;;;5.67;84.54
52249;BME280;38541;48.130;8.378;2023-02-19T08:03:10;93481.25;;;5.56;84.42
52249;BME280;38541;48.130;8.378;2023-02-19T08:05:41;93475.81;;;5.32;83.41
52249;BME280;38541;48.130;8.378;2023-02-19T08:08:10;93488.13;;;5.18;83.94
52249;BME280;38541;48.130;8.378;2023-02-19T08:10:37;93478.00;;;5.35;84.33
52249;BME280;38541;48.130;8.378;2023-02-19T08:13:22;93472.69;;;5.49;83.81
52249;BME280;38541;48.130;8.378;2023-02-19T08:18:42;93482.69;;;5.52;80.53
52249;BME280;38541;48.130;8.378;2023-02-19T08:21:10;93486.47;;;5.56;80.50
52249;BME280;38541;48.130;8.378;2023-02-19T08:23:37;93489.94;;;5.50;79.76
52249;BME280;38541;48.130;8.378;2023-02-19T08:26:04;93489.94;;;5.50;79.86
52249;BME280;38541;48.130;8.378;2023-02-19T08:28:31;93482.44;;;5.60;80.15
52249;BME280;38541;48.130;8.378;2023-02-19T08:31:00;93481.91;;;5.77;80.05
52249;BME280;38541;48.130;8.378;2023-02-19T08:33:27;93496.47;;;5.84;79.27
52249;BME280;38541;48.130;8.378;2023-02-19T08:35:54;93494.69;;;5.85;78.60
52249;BME280;38541;48.130;8.378;2023-02-19T08:38:21;93493.97;;;5.96;77.42
52249;BME280;38541;48.130;8.378;2023-02-19T08:40:47;93492.16;;;6.04;77.59
52249;BME280;38541;48.130;8.378;2023-02-19T08:43:15;93494.47;;;6.12;77.06
52249;BME280;38541;48.130;8.378;2023-02-19T08:45:43;93491.03;;;6.18;76.94
52249;BME280;38541;48.130;8.378;2023-02-19T08:48:10;93492.69;;;6.31;76.63
52249;BME280;38541;48.130;8.378;2023-02-19T08:50:37;93495.06;;;6.33;76.53
52249;BME280;38541;48.130;8.378;2023-02-19T08:53:05;93490.88;;;6.50;75.56
52249;BME280;38541;48.130;8.378;2023-02-19T08:55:32;93490.44;;;6.35;74.08
52249;BME280;38541;48.130;8.378;2023-02-19T08:57:59;93496.47;;;6.54;74.26
52249;BME280;38541;48.130;8.378;2023-02-19T09:00:26;93494.81;;;6.60;73.05
52249;BME280;38541;48.130;8.378;2023-02-19T09:02:52;93502.78;;;6.65;73.37
52249;BME280;38541;48.130;8.378;2023-02-19T09:05:19;93500.03;;;6.60;73.34
52249;BME280;38541;48.130;8.378;2023-02-19T09:07:45;93504.28;;;6.73;73.61
52249;BME280;38541;48.130;8.378;2023-02-19T09:10:12;93507.47;;;6.93;73.40
52249;BME280;38541;48.130;8.378;2023-02-19T09:12:40;93505.28;;;6.90;72.89
52249;BME280;38541;48.130;8.378;2023-02-19T09:15:07;93504.66;;;6.95;72.68
52249;BME280;38541;48.130;8.378;2023-02-19T09:17:33;93510.72;;;6.89;73.05
52249;BME280;38541;48.130;8.378;2023-02-19T09:20:00;93508.34;;;6.87;73.15
52249;BME280;38541;48.130;8.378;2023-02-19T09:22:26;93516.91;;;6.94;72.51
52249;BME280;38541;48.130;8.378;2023-02-19T09:24:52;93513.50;;;6.94;72.61
52249;BME280;38541;48.130;8.378;2023-02-19T09:27:19;93522.09;;;7.13;72.58
52249;BME280;38541;48.130;8.378;2023-02-19T09:29:46;93516.25;;;6.99;71.80
52249;BME280;38541;48.130;8.378;2023-02-19T09:32:12;93513.31;;;7.07;72.37
52249;BME280;38541;48.130;8.378;2023-02-19T09:34:39;93509.06;;;7.25;72.25
52249;BME280;38541;48.130;8.378;2023-02-19T09:37:06;93528.09;;;7.32;71.87
52249;BME280;38541;48.130;8.378;2023-02-19T09:39:34;93521.03;;;7.33;70.84
52249;BME280;38541;48.130;8.378;2023-02-19T09:42:08;93522.72;;;7.27;70.83
52249;BME280;38541;48.130;8.378;2023-02-19T09:44:38;93524.78;;;7.06;71.98
52249;BME280;38541;48.130;8.378;2023-02-19T09:47:12;93520.66;;;7.29;71.78
52249;BME280;38541;48.130;8.378;2023-02-19T09:49:42;93542.03;;;7.26;70.79
52249;BME280;38541;48.130;8.378;2023-02-19T09:54:44;93536.13;;;7.00;71.76
52249;BME280;38541;48.130;8.378;2023-02-19T09:57:17;93537.25;;;7.23;71.86
52249;BME280;38541;48.130;8.378;2023-02-19T09:59:50;93537.72;;;7.32;71.38
52249;BME280;38541;48.130;8.378;2023-02-19T10:02:20;93530.81;;;7.07;70.89
52249;BME280;38541;48.130;8.378;2023-02-19T10:04:48;93538.75;;;7.31;70.97
52249;BME280;38541;48.130;8.378;2023-02-19T10:07:43;93543.84;;;7.56;69.94
52249;BME280;38541;48.130;8.378;2023-02-19T10:12:45;93543.00;;;7.43;69.31
52249;BME280;38541;48.130;8.378;2023-02-19T10:15:18;93546.47;;;7.56;70.49
52249;BME280;38541;48.130;8.378;2023-02-19T10:17:47;93573.28;;;7.51;69.43
52249;BME280;38541;48.130;8.378;2023-02-19T10:20:16;93557.53;;;7.39;69.59
52249;BME280;38541;48.130;8.378;2023-02-19T10:22:44;93562.09;;;7.13;69.38
52249;BME280;38541;48.130;8.378;2023-02-19T10:25:16;93570.66;;;7.02;70.02
52249;BME280;38541;48.130;8.378;2023-02-19T10:27:43;93570.47;;;7.34;70.82
52249;BME280;38541;48.130;8.378;2023-02-19T10:30:18;93581.59;;;7.30;69.06
52249;BME280;38541;48.130;8.378;2023-02-19T10:33:09;93574.41;;;7.25;69.77
52249;BME280;38541;48.130;8.378;2023-02-19T10:35:51;93570.03;;;7.37;69.49
52249;BME280;38541;48.130;8.378;2023-02-19T10:38:19;93570.97;;;7.43;69.71
52249;BME280;38541;48.130;8.378;2023-02-19T10:40:51;93574.03;;;7.40;69.28
52249;BME280;38541;48.130;8.378;2023-02-19T10:43:26;93581.06;;;7.39;69.21
52249;BME280;38541;48.130;8.378;2023-02-19T10:46:00;93585.41;;;7.46;68.96
52249;BME280;38541;48.130;8.378;2023-02-19T10:48:31;93590.66;;;7.27;68.83
52249;BME280;38541;48.130;8.378;2023-02-19T10:51:01;93595.25;;;7.13;69.24
52249;BME280;38541;48.130;8.378;2023-02-19T10:53:41;93587.78;;;7.17;69.48
52249;BME280;38541;48.130;8.378;2023-02-19T10:56:21;93595.50;;;7.11;68.79
52249;BME280;38541;48.130;8.378;2023-02-19T10:58:49;93596.47;;;7.10;69.21
52249;BME280;38541;48.130;8.378;2023-02-19T11:01:21;93592.50;;;7.08;69.27
52249;BME280;38541;48.130;8.378;2023-02-19T11:03:50;93592.13;;;7.23;69.20
52249;BME280;38541;48.130;8.378;2023-02-19T11:06:19;93589.81;;;7.64;68.79
52249;BME280;38541;48.130;8.378;2023-02-19T11:08:51;93598.44;;;7.64;67.61
52249;BME280;38541;48.130;8.378;2023-02-19T11:11:28;93596.88;;;7.45;67.91
52249;BME280;38541;48.130;8.378;2023-02-19T11:13:56;93600.47;;;7.32;69.02
52249;BME280;38541;48.130;8.378;2023-02-19T11:16:37;93591.53;;;7.39;68.61
52249;BME280;38541;48.130;8.378;2023-02-19T11:19:04;93579.44;;;7.26;68.95
52249;BME280;38541;48.130;8.378;2023-02-19T11:21:31;93576.16;;;7.31;69.01
52249;BME280;38541;48.130;8.378;2023-02-19T11:23:59;93570.31;;;7.29;69.07
52249;BME280;38541;48.130;8.378;2023-02-19T11:26:31;93566.72;;;7.30;69.61
52249;BME280;38541;48.130;8.378;2023-02-19T11:29:18;93568.31;;;7.31;69.72
52249;BME280;38541;48.130;8.378;2023-02-19T11:31:48;93571.13;;;7.30;69.68
52249;BME280;38541;48.130;8.378;2023-02-19T11:37:06;93564.56;;;7.39;69.16
52249;BME280;38541;48.130;8.378;2023-02-19T11:39:32;93558.19;;;7.35;68.71
52249;BME280;38541;48.130;8.378;2023-02-19T11:42:21;93555.53;;;7.23;69.02
52249;BME280;38541;48.130;8.378;2023-02-19T11:53:13;93555.53;;;7.23;68.65
52249;BME280;38541;48.130;8.378;2023-02-19T12:05:40;93569.00;;;7.08;70.07
52249;BME280;38541;48.130;8.378;2023-02-19T12:08:35;93567.75;;;7.10;69.40
52249;BME280;38541;48.130;8.378;2023-02-19T12:11:41;93567.03;;;7.03;70.26
52249;BME280;38541;48.130;8.378;2023-02-19T12:14:40;93562.69;;;6.97;70.33
52249;BME280;38541;48.130;8.378;2023-02-19T12:22:47;93566.03;;;6.85;70.69
52249;BME280;38541;48.130;8.378;2023-02-19T12:36:24;93581.22;;;7.26;69.70
52249;BME280;38541;48.130;8.378;2023-02-19T12:39:03;93570.97;;;7.12;69.39
52249;BME280;38541;48.130;8.378;2023-02-19T12:41:44;93563.69;;;7.14;69.82
52249;BME280;38541;48.130;8.378;2023-02-19T12:44:26;93546.69;;;7.24;69.48
52249;BME280;38541;48.130;8.378;2023-02-19T12:47:01;93543.78;;;7.32;69.25
52249;BME280;38541;48.130;8.378;2023-02-19T12:49:35;93533.84;;;7.53;68.37
52249;BME280;38541;48.130;8.378;2023-02-19T12:54:40;93539.78;;;7.72;66.70
52249;BME280;38541;48.130;8.378;2023-02-19T13:04:46;93561.69;;;8.13;65.93
52249;BME280;38541;48.130;8.378;2023-02-19T13:12:38;93544.53;;;7.63;66.36
52249;BME280;38541;48.130;8.378;2023-02-19T13:15:15;93544.78;;;7.31;66.87
52249;BME280;38541;48.130;8.378;2023-02-19T13:17:49;93550.06;;;7.12;67.70
52249;BME280;38541;48.130;8.378;2023-02-19T13:20:24;93558.53;;;7.08;68.04
52249;BME280;38541;48.130;8.378;2023-02-19T13:23:06;93555.69;;;7.09;67.95
52249;BME280;38541;48.130;8.378;2023-02-19T13:31:47;93572.97;;;7.10;66.88
52249;BME280;38541;48.130;8.378;2023-02-19T13:34:57;93575.28;;;7.19;65.89
52249;BME280;38541;48.130;8.378;2023-02-19T13:37:31;93569.91;;;7.32;66.90
52249;BME280;38541;48.130;8.378;2023-02-19T13:40:04;93568.31;;;7.31;65.76
52249;BME280;38541;48.130;8.378;2023-02-19T13:42:34;93566.41;;;7.38;65.35
52249;BME280;38541;48.130;8.378;2023-02-19T13:45:03;93565.13;;;7.60;65.17
52249;BME280;38541;48.130;8.378;2023-02-19T13:52:49;93561.66;;;7.17;65.10
52249;BME280;38541;48.130;8.378;2023-02-19T14:01:09;93562.63;;;7.34;65.35
52249;BME280;38541;48.130;8.378;2023-02-19T14:03:52;93563.25;;;7.18;65.54
52249;BME280;38541;48.130;8.378;2023-02-19T14:06:20;93565.00;;;7.05;65.94
52249;BME280;38541;48.130;8.378;2023-02-19T14:08:57;93572.25;;;7.03;66.24
52249;BME280;38541;48.130;8.378;2023-02-19T14:14:40;93568.59;;;7.23;65.71
52249;BME280;38541;48.130;8.378;2023-02-19T14:19:51;93557.22;;;7.17;66.17
52249;BME280;38541;48.130;8.378;2023-02-19T14:25:30;93537.84;;;7.06;66.70
52249;BME280;38541;48.130;8.378;2023-02-19T14:28:02;93543.00;;;6.94;66.70
52249;BME280;38541;48.130;8.378;2023-02-19T14:30:32;93541.50;;;6.87;66.51
52249;BME280;38541;48.130;8.378;2023-02-19T14:33:01;93538.03;;;6.74;67.28
52249;BME280;38541;48.130;8.378;2023-02-19T14:35:39;93534.81;;;6.72;67.56
52249;BME280;38541;48.130;8.378;2023-02-19T14:38:15;93539.47;;;6.89;67.56
52249;BME280;38541;48.130;8.378;2023-02-19T14:40:45;93546.00;;;6.98;66.55
52249;BME280;38541;48.130;8.378;2023-02-19T14:43:14;93551.94;;;7.05;66.05
52249;BME280;38541;48.130;8.378;2023-02-19T14:46:03;93564.66;;;7.02;66.04
52249;BME280;38541;48.130;8.378;2023-02-19T14:48:37;93562.97;;;7.07;66.16
52249;BME280;38541;48.130;8.378;2023-02-19T14:53:48;93569.78;;;7.08;65.87
52249;BME280;38541;48.130;8.378;2023-02-19T14:56:24;93571.97;;;7.11;65.95
52249;BME280;38541;48.130;8.378;2023-02-19T14:59:19;93580.53;;;6.81;65.89
52249;BME280;38541;48.130;8.378;2023-02-19T15:01:54;93582.00;;;6.96;66.65
52249;BME280;38541;48.130;8.378;2023-02-19T15:04:26;93584.53;;;6.84;65.04
52249;BME280;38541;48.130;8.378;2023-02-19T15:06:55;93598.81;;;6.81;65.96
52249;BME280;38541;48.130;8.378;2023-02-19T15:09:29;93584.88;;;6.69;65.83
52249;BME280;38541;48.130;8.378;2023-02-19T15:11:57;93595.59;;;6.61;65.93
52249;BME280;38541;48.130;8.378;2023-02-19T15:14:24;93590.44;;;6.54;66.62
52249;BME280;38541;48.130;8.378;2023-02-19T15:16:57;93594.00;;;6.60;66.63
52249;BME280;38541;48.130;8.378;2023-02-19T15:19:25;93590.66;;;6.71;66.62
52249;BME280;38541;48.130;8.378;2023-02-19T15:21:52;93597.09;;;6.75;66.56
52249;BME280;38541;48.130;8.378;2023-02-19T15:24:20;93586.19;;;6.60;66.60